createdAt,value
2019-01-04T09:10:50.326Z,0.02
2019-01-04T09:12:50.335Z,0.01
2019-01-04T09:14:50.371Z,0.01
2019-01-04T09:16:50.562Z,0.01
2019-01-04T09:18:50.524Z,0.07
2019-01-04T09:20:50.646Z,0.08
2019-01-04T09:22:50.651Z,0.12
2019-01-04T09:24:50.639Z,0.19
2019-01-04T09:26:49.838Z,0.23
2019-01-04T09:28:49.905Z,0.26
2019-01-04T09:30:49.980Z,0.24
2019-01-04T09:32:50.084Z,0.26
2019-01-04T09:34:50.323Z,0.23
2019-01-04T09:36:50.543Z,0.22
2019-01-04T09:38:50.506Z,0.27
2019-01-04T09:40:50.536Z,0.29
2019-01-04T09:42:50.479Z,0.28
2019-01-04T09:44:50.426Z,0.31
2019-01-04T09:46:49.815Z,0.37
2019-01-04T09:48:49.913Z,0.33
2019-01-04T09:50:49.920Z,0.37
2019-01-04T09:52:49.930Z,0.46
2019-01-04T09:54:49.914Z,0.45
2019-01-04T09:56:50.021Z,0.49
2019-01-04T09:58:50.063Z,0.51
2019-01-04T10:00:50.102Z,0.62
2019-01-04T10:02:50.136Z,0.64
2019-01-04T10:04:50.375Z,0.76
2019-01-04T10:06:50.526Z,0.78
2019-01-04T10:08:50.544Z,0.80
2019-01-04T10:10:50.472Z,0.88
2019-01-04T10:12:50.577Z,0.88
2019-01-04T10:14:50.529Z,0.87
2019-01-04T10:16:49.873Z,0.87
2019-01-04T10:18:49.875Z,0.84
2019-01-04T10:20:49.925Z,0.82
2019-01-04T10:22:49.908Z,0.85
2019-01-04T10:24:49.945Z,1.00
2019-01-04T10:26:50.267Z,0.98
2019-01-04T10:28:50.280Z,0.92
2019-01-04T10:30:50.366Z,0.87
2019-01-04T10:32:50.338Z,0.93
2019-01-04T10:34:49.811Z,0.98
2019-01-04T10:36:49.999Z,1.16
2019-01-04T10:38:50.061Z,1.21
2019-01-04T10:40:50.078Z,1.06
2019-01-04T10:42:50.187Z,1.02
2019-01-04T10:44:50.188Z,0.93
2019-01-04T10:46:50.336Z,0.89
2019-01-04T10:48:50.337Z,0.87
2019-01-04T10:50:50.387Z,0.91
2019-01-04T10:52:50.359Z,0.90
2019-01-04T10:54:50.304Z,0.88
2019-01-04T10:56:50.491Z,0.86
2019-01-04T10:58:50.552Z,0.87
2019-01-04T11:00:50.555Z,0.93
2019-01-04T11:02:49.763Z,0.98
2019-01-04T11:04:50.174Z,1.02
2019-01-04T11:06:50.342Z,1.14
2019-01-04T11:08:50.392Z,1.22
2019-01-04T11:10:50.401Z,1.25
2019-01-04T11:12:50.474Z,1.34
2019-01-04T11:14:50.461Z,1.32
2019-01-04T11:16:49.697Z,1.35
2019-01-04T11:18:49.749Z,1.37
2019-01-04T11:20:49.797Z,1.33
2019-01-04T11:22:49.856Z,1.33
2019-01-04T11:24:50.075Z,1.25
2019-01-04T11:26:50.320Z,1.25
2019-01-04T11:28:50.434Z,1.26
2019-01-04T11:30:50.548Z,1.16
2019-01-04T11:32:50.657Z,1.19
2019-01-04T11:34:49.990Z,1.24
2019-01-04T11:36:50.201Z,1.21
2019-01-04T11:38:50.215Z,1.23
2019-01-04T11:40:50.263Z,1.23
2019-01-04T11:42:50.301Z,1.23
2019-01-04T11:44:50.295Z,1.19
2019-01-04T11:46:50.575Z,1.24
2019-01-04T11:48:50.530Z,1.26
2019-01-04T11:50:50.602Z,1.30
2019-01-04T11:52:50.596Z,1.27
2019-01-04T11:54:50.554Z,1.25
2019-01-04T11:56:49.803Z,1.25
2019-01-04T11:58:49.960Z,1.26
2019-01-04T12:00:50.023Z,1.20
2019-01-04T12:02:50.033Z,1.16
2019-01-04T12:04:50.408Z,1.13
2019-01-04T12:06:50.621Z,1.09
2019-01-04T12:08:49.738Z,1.00
2019-01-04T12:10:49.817Z,0.95
2019-01-04T12:12:49.837Z,0.91
2019-01-04T12:14:49.905Z,0.90
2019-01-04T12:16:50.122Z,0.91
2019-01-04T12:18:50.142Z,0.86
2019-01-04T12:20:50.134Z,0.86
2019-01-04T12:22:50.192Z,0.83
2019-01-04T12:24:50.346Z,0.82
2019-01-04T12:26:50.526Z,0.92
2019-01-04T12:28:50.519Z,0.97
2019-01-04T12:30:50.509Z,1.00
2019-01-04T12:32:50.695Z,0.98
2019-01-04T12:34:50.293Z,0.98
2019-01-04T12:36:50.488Z,0.97
2019-01-04T12:38:50.585Z,0.97
2019-01-04T12:40:50.609Z,0.96
2019-01-04T12:42:49.685Z,0.95
2019-01-04T12:44:49.835Z,0.96
2019-01-04T12:46:50.152Z,0.92
2019-01-04T12:48:50.174Z,0.94
2019-01-04T12:50:50.184Z,0.93
2019-01-04T12:52:51.536Z,0.89
2019-01-04T12:54:50.499Z,0.87
2019-01-04T12:56:49.763Z,0.84
2019-01-04T12:58:49.828Z,0.82
2019-01-04T13:00:49.860Z,0.83
2019-01-04T13:02:49.983Z,0.82
2019-01-04T13:04:50.270Z,0.82
2019-01-04T13:06:50.468Z,0.88
2019-01-04T13:08:50.584Z,0.89
2019-01-04T13:10:50.587Z,0.90
2019-01-04T13:12:50.575Z,0.86
2019-01-04T13:14:50.577Z,0.87
2019-01-04T13:16:49.749Z,0.88
2019-01-04T13:18:49.956Z,0.91
2019-01-04T13:20:49.997Z,0.88
2019-01-04T13:22:50.051Z,0.87
2019-01-04T13:24:50.083Z,0.91
2019-01-04T13:26:50.281Z,0.95
2019-01-04T13:28:50.431Z,0.94
2019-01-04T13:30:50.407Z,0.98
2019-01-04T13:32:50.426Z,1.02
2019-01-04T13:34:49.803Z,1.03
2019-01-04T13:36:50.076Z,1.03
2019-01-04T13:38:50.101Z,0.99
2019-01-04T13:40:50.048Z,0.98
2019-01-04T13:42:50.024Z,0.94
2019-01-04T13:44:50.003Z,0.91
2019-01-04T13:46:50.226Z,0.89
2019-01-04T13:48:50.306Z,0.88
2019-01-04T13:50:50.275Z,0.82
2019-01-04T13:52:50.352Z,0.80
2019-01-04T13:54:50.350Z,0.77
2019-01-04T13:56:50.499Z,0.74
2019-01-04T13:58:50.472Z,0.76
2019-01-04T14:00:50.449Z,0.76
2019-01-04T14:02:50.458Z,0.76
2019-01-04T14:04:49.869Z,0.78
2019-01-04T14:06:50.236Z,0.78
2019-01-04T14:08:50.242Z,0.79
2019-01-04T14:10:50.333Z,0.80
2019-01-04T14:12:50.372Z,0.81
2019-01-04T14:14:50.398Z,0.80
2019-01-04T14:16:50.610Z,0.80
2019-01-04T14:18:49.704Z,0.80
2019-01-04T14:20:49.714Z,0.80
2019-01-04T14:22:49.728Z,0.79
2019-01-04T14:24:49.754Z,0.79
2019-01-04T14:26:49.957Z,0.78
2019-01-04T14:28:49.968Z,0.78
2019-01-04T14:30:49.954Z,0.76
2019-01-04T14:32:49.983Z,0.75
2019-01-04T14:34:50.367Z,0.76
2019-01-04T14:36:50.545Z,0.74
2019-01-04T14:38:50.595Z,0.73
2019-01-04T14:40:50.658Z,0.72
2019-01-04T14:42:49.713Z,0.72
2019-01-04T14:44:49.784Z,0.70
2019-01-04T14:46:50.142Z,0.72
2019-01-04T14:48:50.116Z,0.71
2019-01-04T14:50:50.123Z,0.72
2019-01-04T14:52:50.199Z,0.71
2019-01-04T14:54:50.234Z,0.69
2019-01-04T14:56:50.482Z,0.69
2019-01-04T14:58:50.448Z,0.67
2019-01-04T15:00:50.448Z,0.65
2019-01-04T15:02:50.591Z,0.64
2019-01-04T15:04:49.972Z,0.64
2019-01-04T15:06:50.205Z,0.63
2019-01-04T15:08:50.202Z,0.63
2019-01-04T15:10:50.213Z,0.64
2019-01-04T15:12:50.247Z,0.65
2019-01-04T15:14:50.273Z,0.64
2019-01-04T15:16:50.460Z,0.65
2019-01-04T15:18:50.497Z,0.65
2019-01-04T15:20:50.525Z,0.65
2019-01-04T15:22:49.709Z,0.64
2019-01-04T15:24:49.716Z,0.64
2019-01-04T15:26:50.013Z,0.63
2019-01-04T15:28:50.013Z,0.63
2019-01-04T15:30:50.005Z,0.63
2019-01-04T15:32:49.985Z,0.63
2019-01-04T15:34:50.314Z,0.64
2019-01-04T15:36:50.466Z,0.64
2019-01-04T15:38:50.467Z,0.65
2019-01-04T15:40:50.490Z,0.65
2019-01-04T15:42:50.577Z,0.66
2019-01-04T15:44:50.556Z,0.66
2019-01-04T15:46:49.769Z,0.65
2019-01-04T15:48:49.807Z,0.66
2019-01-04T15:50:49.888Z,0.66
2019-01-04T15:52:49.909Z,0.66
2019-01-04T15:54:49.959Z,0.67
2019-01-04T15:56:50.066Z,0.68
2019-01-04T15:58:50.113Z,0.68
2019-01-04T16:00:50.143Z,0.69
2019-01-04T16:02:50.130Z,0.69
2019-01-04T16:04:50.504Z,0.70
2019-01-04T16:06:49.695Z,0.70
2019-01-04T16:08:50.651Z,0.72
2019-01-04T16:10:49.781Z,0.72
2019-01-04T16:12:49.786Z,0.73
2019-01-04T16:14:49.876Z,0.74
2019-01-04T16:16:50.133Z,0.76
2019-01-04T16:18:50.155Z,0.76
2019-01-04T16:20:50.173Z,0.76
2019-01-04T16:22:50.214Z,0.77
2019-01-04T16:24:50.200Z,0.78
2019-01-04T16:26:50.259Z,0.78
2019-01-04T16:28:50.288Z,0.78
2019-01-04T16:30:50.270Z,0.77
2019-01-04T16:32:50.285Z,0.78
2019-01-04T16:34:50.572Z,0.78
2019-01-04T16:36:49.809Z,0.78
2019-01-04T16:38:49.867Z,0.79
2019-01-04T16:40:49.988Z,0.78
2019-01-04T16:42:50.044Z,0.78
2019-01-04T16:44:50.038Z,0.77
2019-01-04T16:46:50.166Z,0.78
2019-01-04T16:48:50.237Z,0.79
2019-01-04T16:50:50.263Z,0.79
2019-01-04T16:52:50.288Z,0.79
2019-01-04T16:54:50.282Z,0.81
2019-01-04T16:56:50.568Z,0.82
2019-01-04T16:58:50.646Z,0.83
2019-01-04T17:00:49.725Z,0.84
2019-01-04T17:02:49.858Z,0.83
2019-01-04T17:04:50.287Z,0.82
2019-01-04T17:06:50.507Z,0.82
2019-01-04T17:08:50.537Z,0.82
2019-01-04T17:10:50.524Z,0.82
2019-01-04T17:12:50.603Z,0.82
2019-01-04T17:14:50.688Z,0.82
2019-01-04T17:16:49.962Z,0.83
2019-01-04T17:18:50.015Z,0.82
2019-01-04T17:20:50.059Z,0.82
2019-01-04T17:22:50.074Z,0.81
2019-01-04T17:24:50.111Z,0.80
2019-01-04T17:26:50.358Z,0.79
2019-01-04T17:28:50.364Z,0.78
2019-01-04T17:30:50.456Z,0.77
2019-01-04T17:32:50.504Z,0.77
2019-01-04T17:34:49.761Z,0.77
2019-01-04T17:36:50.072Z,0.77
2019-01-04T17:38:50.155Z,0.78
2019-01-04T17:40:50.239Z,0.80
2019-01-04T17:42:50.243Z,0.82
2019-01-04T17:44:50.253Z,0.82
2019-01-04T17:46:50.520Z,0.85
2019-01-04T17:48:50.647Z,0.85
2019-01-04T17:50:50.671Z,0.88
2019-01-04T17:52:49.717Z,0.88
2019-01-04T17:54:49.755Z,0.92
2019-01-04T17:56:50.028Z,0.92
2019-01-04T17:58:49.996Z,0.93
2019-01-04T18:00:49.984Z,0.93
2019-01-04T18:02:50.036Z,0.95
2019-01-04T18:04:50.605Z,0.96
2019-01-04T18:06:49.794Z,0.98
2019-01-04T18:08:49.965Z,0.99
2019-01-04T18:10:49.993Z,1.00
2019-01-04T18:12:49.957Z,1.02
2019-01-04T18:14:49.994Z,1.02
2019-01-04T18:16:50.324Z,1.03
2019-01-04T18:18:50.423Z,1.03
2019-01-04T18:20:50.443Z,1.03
2019-01-04T18:22:50.485Z,1.03
2019-01-04T18:24:50.624Z,1.03
2019-01-04T18:26:50.084Z,1.04
2019-01-04T18:28:50.047Z,1.06
2019-01-04T18:30:50.172Z,1.06
2019-01-04T18:32:50.179Z,1.06
2019-01-04T18:34:50.658Z,1.06
2019-01-04T18:36:49.948Z,1.06
2019-01-04T18:38:49.989Z,1.07
2019-01-04T18:40:50.078Z,1.08
2019-01-04T18:42:50.123Z,1.08
2019-01-04T18:44:50.124Z,1.08
2019-01-04T18:46:50.305Z,1.10
2019-01-04T18:48:50.284Z,1.12
2019-01-04T18:50:50.339Z,1.12
2019-01-04T18:52:50.328Z,1.12
2019-01-04T18:54:50.305Z,1.12
2019-01-04T18:56:50.469Z,1.14
2019-01-04T18:58:50.524Z,1.15
2019-01-04T19:00:50.529Z,1.18
2019-01-04T19:02:50.640Z,1.19
2019-01-04T19:04:50.000Z,1.22
2019-01-04T19:06:50.185Z,1.23
2019-01-04T19:08:50.246Z,1.24
2019-01-04T19:10:50.237Z,1.24
2019-01-04T19:12:50.303Z,1.23
2019-01-04T19:14:50.309Z,1.23
2019-01-04T19:16:50.668Z,1.23
2019-01-04T19:18:49.693Z,1.24
2019-01-04T19:20:49.740Z,1.23
2019-01-04T19:22:49.966Z,1.22
2019-01-04T19:24:50.047Z,1.19
2019-01-04T19:26:50.327Z,1.18
2019-01-04T19:28:50.360Z,1.18
2019-01-04T19:30:50.362Z,1.17
2019-01-04T19:32:50.401Z,1.17
2019-01-04T19:34:49.877Z,1.15
2019-01-04T19:36:50.014Z,1.14
2019-01-04T19:38:50.012Z,1.11
2019-01-04T19:40:50.035Z,1.10
2019-01-04T19:42:50.026Z,1.08
2019-01-04T19:44:50.124Z,1.08
2019-01-04T19:46:50.441Z,1.07
2019-01-04T19:48:50.485Z,1.05
2019-01-04T19:50:50.478Z,1.05
2019-01-04T19:52:50.615Z,1.07
2019-01-04T19:54:50.618Z,1.07
2019-01-04T19:56:49.955Z,1.07
2019-01-04T19:58:50.008Z,1.07
2019-01-04T20:00:50.028Z,1.09
2019-01-04T20:02:50.081Z,1.09
2019-01-04T20:04:50.400Z,1.10
2019-01-04T20:06:49.734Z,1.09
2019-01-04T20:08:49.779Z,1.09
2019-01-04T20:10:49.955Z,1.09
2019-01-04T20:12:49.917Z,1.09
2019-01-04T20:14:49.767Z,1.09
2019-01-04T20:16:50.137Z,1.09
2019-01-04T20:18:49.964Z,1.08
2019-01-04T20:20:49.976Z,1.08
2019-01-04T20:22:50.202Z,1.08
2019-01-04T20:24:49.995Z,1.08
2019-01-04T20:26:50.170Z,1.08
2019-01-04T20:28:50.404Z,1.11
2019-01-04T20:30:50.439Z,1.12
2019-01-04T20:32:50.435Z,1.12
2019-01-04T20:34:49.793Z,1.13
2019-01-04T20:36:50.125Z,1.14
2019-01-04T20:38:50.224Z,1.15
2019-01-04T20:40:49.961Z,1.15
2019-01-04T20:42:50.675Z,1.16
2019-01-04T20:44:50.384Z,1.17
2019-01-04T20:46:50.498Z,1.18
2019-01-04T20:48:50.568Z,1.18
2019-01-04T20:50:50.264Z,1.18
2019-01-04T20:52:50.261Z,1.18
2019-01-04T20:54:49.940Z,1.18
2019-01-04T20:56:50.161Z,1.16
2019-01-04T20:58:50.418Z,1.15
2019-01-04T21:00:50.387Z,1.14
2019-01-04T21:02:50.396Z,1.14
2019-01-04T21:04:49.903Z,1.13
2019-01-04T21:06:49.925Z,1.13
2019-01-04T21:08:50.039Z,1.13
2019-01-04T21:10:50.040Z,1.12
2019-01-04T21:12:49.957Z,1.12
2019-01-04T21:14:50.045Z,1.10
2019-01-04T21:16:50.240Z,1.11
2019-01-04T21:18:50.075Z,1.12
2019-01-04T21:20:50.102Z,1.12
2019-01-04T21:22:49.756Z,1.12
2019-01-04T21:24:50.679Z,1.12
2019-01-04T21:26:49.935Z,1.14
2019-01-04T21:28:49.922Z,1.15
2019-01-04T21:30:49.907Z,1.15
2019-01-04T21:32:49.969Z,1.14
2019-01-04T21:34:49.962Z,1.14
2019-01-04T21:36:50.626Z,1.14
2019-01-04T21:38:49.748Z,1.13
2019-01-04T21:40:49.803Z,1.13
2019-01-04T21:42:49.962Z,1.13
2019-01-04T21:44:49.949Z,1.13
2019-01-04T21:46:50.106Z,1.13
2019-01-04T21:48:50.109Z,1.13
2019-01-04T21:50:50.055Z,1.12
2019-01-04T21:52:49.907Z,1.13
2019-01-04T21:54:49.892Z,1.13
2019-01-04T21:56:50.376Z,1.14
2019-01-04T21:58:50.440Z,1.14
2019-01-04T22:00:50.448Z,1.14
2019-01-04T22:02:50.467Z,1.14
2019-01-04T22:04:49.847Z,1.15
2019-01-04T22:06:50.522Z,1.17
2019-01-04T22:08:50.177Z,1.18
2019-01-04T22:10:50.155Z,1.18
2019-01-04T22:12:49.807Z,1.18
2019-01-04T22:14:49.872Z,1.19
2019-01-04T22:16:50.172Z,1.20
2019-01-04T22:18:50.164Z,1.22
2019-01-04T22:20:50.178Z,1.24
2019-01-04T22:22:50.232Z,1.25
2019-01-04T22:24:49.914Z,1.26
2019-01-04T22:26:50.111Z,1.26
2019-01-04T22:28:50.128Z,1.26
2019-01-04T22:30:50.178Z,1.26
2019-01-04T22:32:49.824Z,1.24
2019-01-04T22:34:50.325Z,1.24
2019-01-04T22:36:50.648Z,1.24
2019-01-04T22:38:50.642Z,1.23
2019-01-04T22:40:49.733Z,1.22
2019-01-04T22:42:49.784Z,1.22
2019-01-04T22:44:49.824Z,1.22
2019-01-04T22:46:50.125Z,1.23
2019-01-04T22:48:50.144Z,1.23
2019-01-04T22:50:50.180Z,1.24
2019-01-04T22:52:50.218Z,1.25
2019-01-04T22:54:50.199Z,1.25
2019-01-04T22:56:50.418Z,1.25
2019-01-04T22:58:50.071Z,1.25
2019-01-04T23:00:50.056Z,1.24
2019-01-04T23:02:50.121Z,1.24
2019-01-04T23:04:49.788Z,1.24
2019-01-04T23:06:50.062Z,1.25
2019-01-04T23:08:50.160Z,1.25
2019-01-04T23:10:50.260Z,1.25
2019-01-04T23:12:50.052Z,1.25
2019-01-04T23:14:50.106Z,1.26
2019-01-04T23:16:50.385Z,1.26
2019-01-04T23:18:50.478Z,1.26
2019-01-04T23:20:50.471Z,1.25
2019-01-04T23:22:50.607Z,1.25
2019-01-04T23:24:50.578Z,1.26
2019-01-04T23:26:49.713Z,1.25
2019-01-04T23:28:50.406Z,1.25
2019-01-04T23:30:50.101Z,1.25
2019-01-04T23:32:50.215Z,1.26
2019-01-04T23:34:50.187Z,1.26
2019-01-04T23:36:50.459Z,1.26
2019-01-04T23:38:50.486Z,1.25
2019-01-04T23:40:50.516Z,1.25
2019-01-04T23:42:50.218Z,1.25
2019-01-04T23:44:50.242Z,1.25
2019-01-04T23:46:49.938Z,1.25
2019-01-04T23:48:49.985Z,1.24
2019-01-04T23:50:50.071Z,1.23
2019-01-04T23:52:50.040Z,1.24
2019-01-04T23:54:50.215Z,1.24
2019-01-04T23:56:50.123Z,1.23
2019-01-04T23:58:50.073Z,1.23
